sensor_id;sensor_type;location;lat;lon;timestamp;pressure;altitude;pressure_sealevel;temperature;humidity
63447;BME280;49577;49.872;6.190;2023-12-20T00:00:34;99545.45;;;5.16;95.49
63447;BME280;49577;49.872;6.190;2023-12-20T00:02:59;99547.85;;;5.16;95.35
63447;BME280;49577;49.872;6.190;2023-12-20T00:05:24;99548.90;;;5.16;95.29
63447;BME280;49577;49.872;6.190;2023-12-20T00:07:50;99551.98;;;5.17;95.33
63447;BME280;49577;49.872;6.190;2023-12-20T00:10:15;99556.96;;;5.18;95.17
63447;BME280;49577;49.872;6.190;2023-12-20T00:12:40;99553.80;;;5.19;95.31
63447;BME280;49577;49.872;6.190;2023-12-20T00:15:06;99550.52;;;5.19;95.16
63447;BME280;49577;49.872;6.190;2023-12-20T00:17:31;99556.58;;;5.19;95.19
63447;BME280;49577;49.872;6.190;2023-12-20T00:19:56;99563.80;;;5.20;95.27
63447;BME280;49577;49.872;6.190;2023-12-20T00:22:22;99549.19;;;5.22;95.40
63447;BME280;49577;49.872;6.190;2023-12-20T00:24:47;99533.59;;;5.22;95.23
63447;BME280;49577;49.872;6.190;2023-12-20T00:27:12;99535.36;;;5.21;95.06
63447;BME280;49577;49.872;6.190;2023-12-20T00:29:37;99534.02;;;5.20;95.08
63447;BME280;49577;49.872;6.190;2023-12-20T00:32:02;99532.88;;;5.19;95.07
63447;BME280;49577;49.872;6.190;2023-12-20T00:34:28;99522.52;;;5.17;95.10
63447;BME280;49577;49.872;6.190;2023-12-20T00:36:53;99518.48;;;5.15;95.03
63447;BME280;49577;49.872;6.190;2023-12-20T00:39:20;99535.01;;;5.13;95.06
63447;BME280;49577;49.872;6.190;2023-12-20T00:41:45;99537.08;;;5.13;95.23
63447;BME280;49577;49.872;6.190;2023-12-20T00:44:10;99541.09;;;5.12;95.28
63447;BME280;49577;49.872;6.190;2023-12-20T00:46:35;99557.78;;;5.11;95.07
63447;BME280;49577;49.872;6.190;2023-12-20T00:49:00;99563.60;;;5.08;95.06
63447;BME280;49577;49.872;6.190;2023-12-20T00:51:26;99567.16;;;5.06;95.19
63447;BME280;49577;49.872;6.190;2023-12-20T00:53:51;99554.55;;;5.05;95.11
63447;BME280;49577;49.872;6.190;2023-12-20T00:56:19;99545.56;;;5.05;95.16
63447;BME280;49577;49.872;6.190;2023-12-20T00:58:45;99546.45;;;5.04;95.12
63447;BME280;49577;49.872;6.190;2023-12-20T01:01:10;99546.80;;;5.04;95.29
63447;BME280;49577;49.872;6.190;2023-12-20T01:03:35;99546.45;;;5.04;95.23
63447;BME280;49577;49.872;6.190;2023-12-20T01:06:01;99543.48;;;5.05;95.26
63447;BME280;49577;49.872;6.190;2023-12-20T01:08:26;99545.21;;;5.05;95.16
63447;BME280;49577;49.872;6.190;2023-12-20T01:10:51;99544.14;;;5.06;95.25
63447;BME280;49577;49.872;6.190;2023-12-20T01:13:17;99539.33;;;5.05;95.20
63447;BME280;49577;49.872;6.190;2023-12-20T01:15:42;99545.74;;;5.04;95.11
63447;BME280;49577;49.872;6.190;2023-12-20T01:18:07;99540.91;;;5.04;95.09
63447;BME280;49577;49.872;6.190;2023-12-20T01:20:32;99539.52;;;5.05;95.19
63447;BME280;49577;49.872;6.190;2023-12-20T01:22:57;99545.00;;;5.06;95.36
63447;BME280;49577;49.872;6.190;2023-12-20T01:25:23;99552.73;;;5.07;95.40
63447;BME280;49577;49.872;6.190;2023-12-20T01:27:48;99557.47;;;5.10;95.31
63447;BME280;49577;49.872;6.190;2023-12-20T01:30:14;99558.77;;;5.12;95.24
63447;BME280;49577;49.872;6.190;2023-12-20T01:32:39;99558.90;;;5.13;95.25
63447;BME280;49577;49.872;6.190;2023-12-20T01:35:05;99555.57;;;5.14;95.27
63447;BME280;49577;49.872;6.190;2023-12-20T01:37:30;99556.35;;;5.16;95.35
63447;BME280;49577;49.872;6.190;2023-12-20T01:39:55;99558.00;;;5.18;95.33
63447;BME280;49577;49.872;6.190;2023-12-20T01:42:20;99557.41;;;5.20;95.39
63447;BME280;49577;49.872;6.190;2023-12-20T01:44:47;99557.67;;;5.22;95.40
63447;BME280;49577;49.872;6.190;2023-12-20T01:47:12;99559.16;;;5.23;95.30
63447;BME280;49577;49.872;6.190;2023-12-20T01:49:38;99561.13;;;5.26;95.30
63447;BME280;49577;49.872;6.190;2023-12-20T01:52:04;99561.20;;;5.28;95.41
63447;BME280;49577;49.872;6.190;2023-12-20T01:54:29;99566.31;;;5.30;95.32
63447;BME280;49577;49.872;6.190;2023-12-20T01:56:55;99568.77;;;5.29;95.07
63447;BME280;49577;49.872;6.190;2023-12-20T01:59:20;99567.15;;;5.27;94.96
63447;BME280;49577;49.872;6.190;2023-12-20T02:01:46;99570.44;;;5.27;95.23
63447;BME280;49577;49.872;6.190;2023-12-20T02:04:12;99573.89;;;5.28;95.23
63447;BME280;49577;49.872;6.190;2023-12-20T02:06:37;99580.24;;;5.28;95.32
63447;BME280;49577;49.872;6.190;2023-12-20T02:09:04;99583.14;;;5.30;95.36
63447;BME280;49577;49.872;6.190;2023-12-20T02:11:30;99588.32;;;5.30;95.27
63447;BME280;49577;49.872;6.190;2023-12-20T02:13:55;99594.16;;;5.31;95.32
63447;BME280;49577;49.872;6.190;2023-12-20T02:16:21;99597.11;;;5.31;95.31
63447;BME280;49577;49.872;6.190;2023-12-20T02:18:46;99597.13;;;5.30;95.18
63447;BME280;49577;49.872;6.190;2023-12-20T02:21:11;99602.46;;;5.27;95.17
63447;BME280;49577;49.872;6.190;2023-12-20T02:23:37;99603.51;;;5.23;95.04
63447;BME280;49577;49.872;6.190;2023-12-20T02:26:02;99601.27;;;5.18;95.00
63447;BME280;49577;49.872;6.190;2023-12-20T02:28:28;99600.14;;;5.12;94.89
63447;BME280;49577;49.872;6.190;2023-12-20T02:30:54;99596.30;;;5.04;94.78
63447;BME280;49577;49.872;6.190;2023-12-20T02:33:19;99602.21;;;4.95;94.72
63447;BME280;49577;49.872;6.190;2023-12-20T02:35:44;99604.66;;;4.86;94.74
63447;BME280;49577;49.872;6.190;2023-12-20T02:38:09;99605.19;;;4.76;94.82
63447;BME280;49577;49.872;6.190;2023-12-20T02:40:34;99614.55;;;4.67;94.91
63447;BME280;49577;49.872;6.190;2023-12-20T02:43:00;99625.22;;;4.60;94.91
63447;BME280;49577;49.872;6.190;2023-12-20T02:45:26;99623.56;;;4.53;94.93
63447;BME280;49577;49.872;6.190;2023-12-20T02:47:51;99614.64;;;4.47;94.78
63447;BME280;49577;49.872;6.190;2023-12-20T02:50:16;99615.35;;;4.42;94.04
63447;BME280;49577;49.872;6.190;2023-12-20T02:52:44;99625.91;;;4.41;93.76
63447;BME280;49577;49.872;6.190;2023-12-20T02:55:09;99624.86;;;4.37;93.43
63447;BME280;49577;49.872;6.190;2023-12-20T02:57:35;99623.65;;;4.32;92.78
63447;BME280;49577;49.872;6.190;2023-12-20T03:00:01;99630.05;;;4.28;92.26
63447;BME280;49577;49.872;6.190;2023-12-20T03:02:26;99632.72;;;4.21;91.88
63447;BME280;49577;49.872;6.190;2023-12-20T03:04:51;99641.65;;;4.13;91.62
63447;BME280;49577;49.872;6.190;2023-12-20T03:07:17;99653.13;;;4.06;91.35
63447;BME280;49577;49.872;6.190;2023-12-20T03:09:42;99660.08;;;4.00;91.22
63447;BME280;49577;49.872;6.190;2023-12-20T03:12:07;99666.34;;;3.94;91.02
63447;BME280;49577;49.872;6.190;2023-12-20T03:14:32;99671.52;;;3.89;90.96
63447;BME280;49577;49.872;6.190;2023-12-20T03:16:58;99670.23;;;3.82;90.96
63447;BME280;49577;49.872;6.190;2023-12-20T03:19:23;99677.70;;;3.75;90.84
63447;BME280;49577;49.872;6.190;2023-12-20T03:21:48;99681.30;;;3.71;90.75
63447;BME280;49577;49.872;6.190;2023-12-20T03:24:13;99684.24;;;3.70;90.55
63447;BME280;49577;49.872;6.190;2023-12-20T03:26:39;99681.73;;;3.68;90.59
63447;BME280;49577;49.872;6.190;2023-12-20T03:29:04;99684.19;;;3.67;90.69
63447;BME280;49577;49.872;6.190;2023-12-20T03:31:29;99683.49;;;3.67;90.83
63447;BME280;49577;49.872;6.190;2023-12-20T03:33:54;99690.98;;;3.70;90.77
63447;BME280;49577;49.872;6.190;2023-12-20T03:36:20;99687.98;;;3.72;90.78
63447;BME280;49577;49.872;6.190;2023-12-20T03:38:45;99681.48;;;3.75;90.91
63447;BME280;49577;49.872;6.190;2023-12-20T03:41:11;99686.55;;;3.79;90.87
63447;BME280;49577;49.872;6.190;2023-12-20T03:43:36;99685.23;;;3.83;90.84
63447;BME280;49577;49.872;6.190;2023-12-20T03:46:02;99684.55;;;3.87;90.80
63447;BME280;49577;49.872;6.190;2023-12-20T03:48:28;99683.75;;;3.91;90.80
63447;BME280;49577;49.872;6.190;2023-12-20T03:50:54;99682.02;;;3.95;90.99
63447;BME280;49577;49.872;6.190;2023-12-20T03:53:19;99677.10;;;3.98;90.98
63447;BME280;49577;49.872;6.190;2023-12-20T03:55:44;99675.05;;;4.02;90.95
63447;BME280;49577;49.872;6.190;2023-12-20T03:58:09;99668.05;;;4.04;90.74
63447;BME280;49577;49.872;6.190;2023-12-20T04:00:34;99669.10;;;4.04;90.52
63447;BME280;49577;49.872;6.190;2023-12-20T04:03:00;99667.81;;;4.01;90.43
63447;BME280;49577;49.872;6.190;2023-12-20T04:05:25;99668.98;;;3.98;90.49
63447;BME280;49577;49.872;6.190;2023-12-20T04:07:50;99668.64;;;3.98;90.63
63447;BME280;49577;49.872;6.190;2023-12-20T04:10:15;99673.63;;;3.98;90.64
63447;BME280;49577;49.872;6.190;2023-12-20T04:12:41;99682.36;;;4.00;90.71
63447;BME280;49577;49.872;6.190;2023-12-20T04:15:06;99682.21;;;4.00;90.87
63447;BME280;49577;49.872;6.190;2023-12-20T04:17:34;99678.65;;;3.98;90.98
63447;BME280;49577;49.872;6.190;2023-12-20T04:19:59;99683.34;;;3.97;91.16
63447;BME280;49577;49.872;6.190;2023-12-20T04:22:24;99685.92;;;3.97;91.38
63447;BME280;49577;49.872;6.190;2023-12-20T04:24:49;99687.45;;;3.98;91.54
63447;BME280;49577;49.872;6.190;2023-12-20T04:27:15;99692.09;;;3.99;91.59
63447;BME280;49577;49.872;6.190;2023-12-20T04:29:40;99691.89;;;4.00;91.58
63447;BME280;49577;49.872;6.190;2023-12-20T04:32:05;99691.20;;;4.00;91.64
63447;BME280;49577;49.872;6.190;2023-12-20T04:34:31;99690.16;;;4.00;91.45
63447;BME280;49577;49.872;6.190;2023-12-20T04:36:56;99682.59;;;3.99;91.57
63447;BME280;49577;49.872;6.190;2023-12-20T04:39:21;99677.70;;;4.00;91.86
63447;BME280;49577;49.872;6.190;2023-12-20T04:41:46;99683.19;;;4.01;91.87
63447;BME280;49577;49.872;6.190;2023-12-20T04:44:12;99684.52;;;4.03;91.91
63447;BME280;49577;49.872;6.190;2023-12-20T04:46:38;99695.69;;;4.05;91.89
63447;BME280;49577;49.872;6.190;2023-12-20T04:49:03;99704.12;;;4.06;91.95
63447;BME280;49577;49.872;6.190;2023-12-20T04:51:29;99711.30;;;4.09;91.95
63447;BME280;49577;49.872;6.190;2023-12-20T04:53:54;99710.77;;;4.09;91.82
63447;BME280;49577;49.872;6.190;2023-12-20T04:56:19;99709.50;;;4.11;91.66
63447;BME280;49577;49.872;6.190;2023-12-20T04:58:44;99714.10;;;4.13;91.58
63447;BME280;49577;49.872;6.190;2023-12-20T05:01:09;99713.36;;;4.14;91.73
63447;BME280;49577;49.872;6.190;2023-12-20T05:03:35;99712.96;;;4.15;91.84
63447;BME280;49577;49.872;6.190;2023-12-20T05:06:00;99713.90;;;4.18;91.70
63447;BME280;49577;49.872;6.190;2023-12-20T05:08:25;99712.61;;;4.20;91.92
63447;BME280;49577;49.872;6.190;2023-12-20T05:10:54;99712.34;;;4.23;91.54
63447;BME280;49577;49.872;6.190;2023-12-20T05:13:19;99717.89;;;4.22;91.17
63447;BME280;49577;49.872;6.190;2023-12-20T05:15:44;99716.62;;;4.24;91.47
63447;BME280;49577;49.872;6.190;2023-12-20T05:18:10;99719.63;;;4.27;91.31
63447;BME280;49577;49.872;6.190;2023-12-20T05:20:35;99714.91;;;4.28;91.02
63447;BME280;49577;49.872;6.190;2023-12-20T05:23:00;99711.56;;;4.30;90.91
63447;BME280;49577;49.872;6.190;2023-12-20T05:25:25;99713.89;;;4.34;90.80
63447;BME280;49577;49.872;6.190;2023-12-20T05:27:51;99716.23;;;4.35;90.68
63447;BME280;49577;49.872;6.190;2023-12-20T05:30:16;99721.98;;;4.39;90.65
63447;BME280;49577;49.872;6.190;2023-12-20T05:32:41;99717.71;;;4.43;90.50
63447;BME280;49577;49.872;6.190;2023-12-20T05:35:06;99724.99;;;4.46;90.47
63447;BME280;49577;49.872;6.190;2023-12-20T05:37:32;99723.42;;;4.47;90.19
63447;BME280;49577;49.872;6.190;2023-12-20T05:39:57;99730.46;;;4.49;90.02
63447;BME280;49577;49.872;6.190;2023-12-20T05:42:22;99734.70;;;4.52;90.13
63447;BME280;49577;49.872;6.190;2023-12-20T05:44:48;99745.98;;;4.55;89.99
63447;BME280;49577;49.872;6.190;2023-12-20T05:47:13;99743.45;;;4.58;90.02
63447;BME280;49577;49.872;6.190;2023-12-20T05:49:38;99742.85;;;4.61;90.07
63447;BME280;49577;49.872;6.190;2023-12-20T05:52:03;99736.67;;;4.63;90.20
63447;BME280;49577;49.872;6.190;2023-12-20T05:54:29;99733.84;;;4.66;90.39
63447;BME280;49577;49.872;6.190;2023-12-20T05:56:54;99732.78;;;4.66;90.16
63447;BME280;49577;49.872;6.190;2023-12-20T05:59:19;99728.98;;;4.66;90.08
63447;BME280;49577;49.872;6.190;2023-12-20T06:01:45;99729.01;;;4.65;89.63
63447;BME280;49577;49.872;6.190;2023-12-20T06:04:10;99735.88;;;4.62;89.31
63447;BME280;49577;49.872;6.190;2023-12-20T06:06:39;99744.79;;;4.64;89.91
63447;BME280;49577;49.872;6.190;2023-12-20T06:09:05;99754.59;;;4.66;90.00
63447;BME280;49577;49.872;6.190;2023-12-20T06:11:30;99757.27;;;4.68;90.00
63447;BME280;49577;49.872;6.190;2023-12-20T06:13:55;99760.48;;;4.70;89.79
63447;BME280;49577;49.872;6.190;2023-12-20T06:16:21;99755.02;;;4.73;89.69
63447;BME280;49577;49.872;6.190;2023-12-20T06:18:46;99755.20;;;4.72;89.49
63447;BME280;49577;49.872;6.190;2023-12-20T06:21:11;99752.01;;;4.75;89.53
63447;BME280;49577;49.872;6.190;2023-12-20T06:23:38;99748.30;;;4.76;89.43
63447;BME280;49577;49.872;6.190;2023-12-20T06:26:03;99741.38;;;4.76;89.03
63447;BME280;49577;49.872;6.190;2023-12-20T06:28:29;99731.21;;;4.75;88.93
63447;BME280;49577;49.872;6.190;2023-12-20T06:30:54;99727.62;;;4.74;88.84
63447;BME280;49577;49.872;6.190;2023-12-20T06:33:20;99722.73;;;4.75;89.00
63447;BME280;49577;49.872;6.190;2023-12-20T06:35:46;99728.43;;;4.76;88.82
63447;BME280;49577;49.872;6.190;2023-12-20T06:38:11;99731.16;;;4.72;88.50
63447;BME280;49577;49.872;6.190;2023-12-20T06:40:37;99741.08;;;4.71;88.46
63447;BME280;49577;49.872;6.190;2023-12-20T06:43:02;99747.48;;;4.66;87.69
63447;BME280;49577;49.872;6.190;2023-12-20T06:45:27;99754.39;;;4.62;87.94
63447;BME280;49577;49.872;6.190;2023-12-20T06:47:52;99751.77;;;4.62;88.23
63447;BME280;49577;49.872;6.190;2023-12-20T06:50:19;99746.51;;;4.64;88.22
63447;BME280;49577;49.872;6.190;2023-12-20T06:52:44;99747.67;;;4.66;88.37
63447;BME280;49577;49.872;6.190;2023-12-20T06:55:10;99748.98;;;4.67;88.12
63447;BME280;49577;49.872;6.190;2023-12-20T06:57:35;99749.83;;;4.68;88.17
63447;BME280;49577;49.872;6.190;2023-12-20T07:00:01;99751.39;;;4.68;87.97
63447;BME280;49577;49.872;6.190;2023-12-20T07:02:27;99752.45;;;4.67;88.06
63447;BME280;49577;49.872;6.190;2023-12-20T07:04:55;99754.48;;;4.69;88.39
63447;BME280;49577;49.872;6.190;2023-12-20T07:07:20;99750.55;;;4.72;88.43
63447;BME280;49577;49.872;6.190;2023-12-20T07:09:46;99751.41;;;4.72;88.13
63447;BME280;49577;49.872;6.190;2023-12-20T07:12:11;99757.98;;;4.72;88.11
63447;BME280;49577;49.872;6.190;2023-12-20T07:14:36;99758.55;;;4.71;87.81
63447;BME280;49577;49.872;6.190;2023-12-20T07:17:02;99764.63;;;4.70;87.92
63447;BME280;49577;49.872;6.190;2023-12-20T07:19:27;99771.01;;;4.71;87.89
63447;BME280;49577;49.872;6.190;2023-12-20T07:21:53;99771.55;;;4.71;87.48
63447;BME280;49577;49.872;6.190;2023-12-20T07:24:18;99769.55;;;4.68;87.58
63447;BME280;49577;49.872;6.190;2023-12-20T07:26:43;99767.65;;;4.68;87.62
63447;BME280;49577;49.872;6.190;2023-12-20T07:29:08;99773.35;;;4.68;87.69
63447;BME280;49577;49.872;6.190;2023-12-20T07:31:34;99777.15;;;4.69;87.93
63447;BME280;49577;49.872;6.190;2023-12-20T07:33:59;99781.91;;;4.71;87.99
63447;BME280;49577;49.872;6.190;2023-12-20T07:36:25;99784.23;;;4.69;87.49
63447;BME280;49577;49.872;6.190;2023-12-20T07:38:50;99782.72;;;4.67;87.63
63447;BME280;49577;49.872;6.190;2023-12-20T07:41:15;99788.45;;;4.67;87.80
63447;BME280;49577;49.872;6.190;2023-12-20T07:43:41;99788.06;;;4.68;87.92
63447;BME280;49577;49.872;6.190;2023-12-20T07:46:06;99785.45;;;4.69;88.03
63447;BME280;49577;49.872;6.190;2023-12-20T07:48:32;99790.98;;;4.69;88.15
63447;BME280;49577;49.872;6.190;2023-12-20T07:50:57;99792.41;;;4.72;88.31
63447;BME280;49577;49.872;6.190;2023-12-20T07:53:22;99787.90;;;4.73;88.22
63447;BME280;49577;49.872;6.190;2023-12-20T07:55:47;99793.42;;;4.73;88.16
63447;BME280;49577;49.872;6.190;2023-12-20T07:58:13;99796.29;;;4.75;88.26
63447;BME280;49577;49.872;6.190;2023-12-20T08:00:38;99792.85;;;4.74;88.02
63447;BME280;49577;49.872;6.190;2023-12-20T08:03:04;99795.70;;;4.72;88.07
63447;BME280;49577;49.872;6.190;2023-12-20T08:05:29;99793.66;;;4.71;88.07
63447;BME280;49577;49.872;6.190;2023-12-20T08:07:54;99792.35;;;4.74;88.35
63447;BME280;49577;49.872;6.190;2023-12-20T08:10:19;99787.61;;;4.76;88.20
63447;BME280;49577;49.872;6.190;2023-12-20T08:12:45;99791.11;;;4.75;87.91
63447;BME280;49577;49.872;6.190;2023-12-20T08:15:10;99791.85;;;4.74;87.96
63447;BME280;49577;49.872;6.190;2023-12-20T08:17:35;99795.88;;;4.72;87.81
63447;BME280;49577;49.872;6.190;2023-12-20T08:20:00;99804.04;;;4.77;87.93
63447;BME280;49577;49.872;6.190;2023-12-20T08:22:25;99811.16;;;4.86;87.91
63447;BME280;49577;49.872;6.190;2023-12-20T08:24:51;99809.82;;;4.89;87.83
63447;BME280;49577;49.872;6.190;2023-12-20T08:27:16;99803.48;;;4.87;87.22
63447;BME280;49577;49.872;6.190;2023-12-20T08:29:43;99803.02;;;4.86;87.40
63447;BME280;49577;49.872;6.190;2023-12-20T08:32:08;99800.06;;;4.91;87.76
63447;BME280;49577;49.872;6.190;2023-12-20T08:34:33;99802.24;;;4.97;87.75
63447;BME280;49577;49.872;6.190;2023-12-20T08:36:59;99798.65;;;5.06;87.62
63447;BME280;49577;49.872;6.190;2023-12-20T08:39:24;99799.09;;;5.12;86.92
63447;BME280;49577;49.872;6.190;2023-12-20T08:41:49;99796.46;;;5.31;87.41
63447;BME280;49577;49.872;6.190;2023-12-20T08:44:14;99802.25;;;5.87;87.89
63447;BME280;49577;49.872;6.190;2023-12-20T08:46:40;99795.52;;;6.08;86.04
63447;BME280;49577;49.872;6.190;2023-12-20T08:49:05;99795.52;;;6.21;86.02
63447;BME280;49577;49.872;6.190;2023-12-20T08:51:30;99791.95;;;6.52;85.25
63447;BME280;49577;49.872;6.190;2023-12-20T08:53:56;99792.04;;;6.42;83.52
63447;BME280;49577;49.872;6.190;2023-12-20T08:56:21;99793.15;;;6.23;83.73
63447;BME280;49577;49.872;6.190;2023-12-20T08:58:46;99801.68;;;6.15;84.48
63447;BME280;49577;49.872;6.190;2023-12-20T09:01:12;99805.33;;;6.06;84.41
63447;BME280;49577;49.872;6.190;2023-12-20T09:03:37;99805.23;;;6.00;84.62
63447;BME280;49577;49.872;6.190;2023-12-20T09:06:03;99811.21;;;5.94;84.18
63447;BME280;49577;49.872;6.190;2023-12-20T09:08:28;99818.80;;;5.85;84.15
63447;BME280;49577;49.872;6.190;2023-12-20T09:10:53;99820.42;;;5.79;84.44
63447;BME280;49577;49.872;6.190;2023-12-20T09:13:18;99819.79;;;5.73;84.27
63447;BME280;49577;49.872;6.190;2023-12-20T09:15:44;99814.46;;;5.68;84.25
63447;BME280;49577;49.872;6.190;2023-12-20T09:18:09;99814.34;;;5.62;84.10
63447;BME280;49577;49.872;6.190;2023-12-20T09:20:34;99812.73;;;5.59;84.38
63447;BME280;49577;49.872;6.190;2023-12-20T09:23:00;99809.61;;;5.59;84.52
63447;BME280;49577;49.872;6.190;2023-12-20T09:25:25;99811.03;;;5.58;84.34
63447;BME280;49577;49.872;6.190;2023-12-20T09:27:51;99811.14;;;5.60;84.59
63447;BME280;49577;49.872;6.190;2023-12-20T09:30:17;99808.49;;;5.66;85.01
63447;BME280;49577;49.872;6.190;2023-12-20T09:32:42;99801.49;;;5.71;84.68
63447;BME280;49577;49.872;6.190;2023-12-20T09:35:07;99798.87;;;5.72;84.16
63447;BME280;49577;49.872;6.190;2023-12-20T09:37:33;99802.00;;;5.80;84.84
63447;BME280;49577;49.872;6.190;2023-12-20T09:39:59;99803.30;;;5.87;84.42
63447;BME280;49577;49.872;6.190;2023-12-20T09:42:36;99802.23;;;5.88;84.33
63447;BME280;49577;49.872;6.190;2023-12-20T09:45:03;99803.31;;;5.92;84.26
63447;BME280;49577;49.872;6.190;2023-12-20T09:47:31;99800.98;;;5.93;83.81
63447;BME280;49577;49.872;6.190;2023-12-20T09:49:57;99813.18;;;5.97;83.94
63447;BME280;49577;49.872;6.190;2023-12-20T09:52:22;99811.16;;;5.99;83.92
63447;BME280;49577;49.872;6.190;2023-12-20T09:54:49;99810.88;;;6.02;83.86
63447;BME280;49577;49.872;6.190;2023-12-20T09:57:14;99808.96;;;6.06;84.22
63447;BME280;49577;49.872;6.190;2023-12-20T09:59:40;99801.66;;;6.07;82.47
63447;BME280;49577;49.872;6.190;2023-12-20T10:02:05;99797.18;;;6.06;82.94
63447;BME280;49577;49.872;6.190;2023-12-20T10:04:34;99795.73;;;6.12;83.32
63447;BME280;49577;49.872;6.190;2023-12-20T10:07:02;99796.95;;;6.20;83.33
63447;BME280;49577;49.872;6.190;2023-12-20T10:09:28;99795.80;;;6.27;83.28
63447;BME280;49577;49.872;6.190;2023-12-20T10:11:56;99792.70;;;6.26;82.49
63447;BME280;49577;49.872;6.190;2023-12-20T10:14:22;99791.77;;;6.23;82.39
63447;BME280;49577;49.872;6.190;2023-12-20T10:16:48;99794.52;;;6.20;82.04
63447;BME280;49577;49.872;6.190;2023-12-20T10:19:15;99789.86;;;6.19;82.40
63447;BME280;49577;49.872;6.190;2023-12-20T10:21:41;99784.28;;;6.20;82.33
63447;BME280;49577;49.872;6.190;2023-12-20T10:24:06;99784.34;;;6.19;81.33
63447;BME280;49577;49.872;6.190;2023-12-20T10:26:31;99779.41;;;6.17;81.64
63447;BME280;49577;49.872;6.190;2023-12-20T10:29:00;99793.20;;;6.18;82.04
63447;BME280;49577;49.872;6.190;2023-12-20T10:31:26;99790.35;;;6.20;81.62
63447;BME280;49577;49.872;6.190;2023-12-20T10:33:51;99794.33;;;6.25;81.87
63447;BME280;49577;49.872;6.190;2023-12-20T10:36:16;99797.35;;;6.27;80.80
63447;BME280;49577;49.872;6.190;2023-12-20T10:38:42;99796.90;;;6.29;81.19
63447;BME280;49577;49.872;6.190;2023-12-20T10:41:07;99792.14;;;6.31;81.12
63447;BME280;49577;49.872;6.190;2023-12-20T10:43:33;99781.88;;;6.37;81.28
63447;BME280;49577;49.872;6.190;2023-12-20T10:45:59;99770.04;;;6.41;81.07
63447;BME280;49577;49.872;6.190;2023-12-20T10:48:24;99770.17;;;6.46;80.70
63447;BME280;49577;49.872;6.190;2023-12-20T10:50:54;99765.52;;;6.49;80.16
63447;BME280;49577;49.872;6.190;2023-12-20T10:53:20;99767.23;;;6.53;80.44
63447;BME280;49577;49.872;6.190;2023-12-20T10:55:46;99770.18;;;6.58;80.25
63447;BME280;49577;49.872;6.190;2023-12-20T10:58:13;99770.48;;;6.59;79.89
63447;BME280;49577;49.872;6.190;2023-12-20T11:00:39;99767.71;;;6.54;79.50
63447;BME280;49577;49.872;6.190;2023-12-20T11:03:08;99757.77;;;6.56;79.12
63447;BME280;49577;49.872;6.190;2023-12-20T11:08:17;99744.54;;;6.76;78.64
63447;BME280;49577;49.872;6.190;2023-12-20T11:13:17;99737.15;;;7.13;78.32
63447;BME280;49577;49.872;6.190;2023-12-20T11:15:45;99736.39;;;7.28;78.02
63447;BME280;49577;49.872;6.190;2023-12-20T11:18:11;99732.06;;;7.43;77.71
63447;BME280;49577;49.872;6.190;2023-12-20T11:20:36;99730.80;;;7.55;77.44
63447;BME280;49577;49.872;6.190;2023-12-20T11:23:02;99731.08;;;7.60;77.02
63447;BME280;49577;49.872;6.190;2023-12-20T11:25:28;99735.16;;;7.58;76.18
63447;BME280;49577;49.872;6.190;2023-12-20T11:28:11;99742.38;;;7.45;75.80
63447;BME280;49577;49.872;6.190;2023-12-20T11:30:46;99743.08;;;7.34;75.65
63447;BME280;49577;49.872;6.190;2023-12-20T11:33:12;99740.13;;;7.27;76.31
63447;BME280;49577;49.872;6.190;2023-12-20T11:35:38;99732.54;;;7.26;76.25
63447;BME280;49577;49.872;6.190;2023-12-20T11:38:04;99736.83;;;7.19;75.84
63447;BME280;49577;49.872;6.190;2023-12-20T11:40:30;99730.79;;;7.15;76.69
63447;BME280;49577;49.872;6.190;2023-12-20T11:42:58;99725.55;;;7.12;75.97
63447;BME280;49577;49.872;6.190;2023-12-20T11:45:24;99722.35;;;7.06;76.59
63447;BME280;49577;49.872;6.190;2023-12-20T11:47:50;99728.92;;;7.06;76.99
63447;BME280;49577;49.872;6.190;2023-12-20T11:50:16;99734.78;;;7.04;76.80
63447;BME280;49577;49.872;6.190;2023-12-20T11:52:41;99734.45;;;7.00;76.72
63447;BME280;49577;49.872;6.190;2023-12-20T11:55:06;99732.14;;;6.93;76.51
63447;BME280;49577;49.872;6.190;2023-12-20T11:57:32;99728.46;;;6.94;77.11
63447;BME280;49577;49.872;6.190;2023-12-20T11:59:57;99728.87;;;6.96;77.12
63447;BME280;49577;49.872;6.190;2023-12-20T12:02:22;99729.38;;;6.96;77.24
63447;BME280;49577;49.872;6.190;2023-12-20T12:04:49;99717.98;;;6.91;77.39
63447;BME280;49577;49.872;6.190;2023-12-20T12:07:15;99715.38;;;6.88;77.38
63447;BME280;49577;49.872;6.190;2023-12-20T12:09:40;99710.55;;;6.83;77.71
63447;BME280;49577;49.872;6.190;2023-12-20T12:12:06;99707.35;;;6.81;78.19
63447;BME280;49577;49.872;6.190;2023-12-20T12:14:32;99707.43;;;6.75;77.96
63447;BME280;49577;49.872;6.190;2023-12-20T12:16:57;99703.90;;;6.65;78.18
63447;BME280;49577;49.872;6.190;2023-12-20T12:19:22;99701.32;;;6.61;78.86
63447;BME280;49577;49.872;6.190;2023-12-20T12:21:49;99703.40;;;6.57;79.05
63447;BME280;49577;49.872;6.190;2023-12-20T12:24:14;99699.31;;;6.55;79.21
63447;BME280;49577;49.872;6.190;2023-12-20T12:26:39;99692.41;;;6.58;79.57
63447;BME280;49577;49.872;6.190;2023-12-20T12:29:07;99688.06;;;6.81;79.86
63447;BME280;49577;49.872;6.190;2023-12-20T12:31:32;99690.13;;;7.19;79.51
63447;BME280;49577;49.872;6.190;2023-12-20T12:33:57;99679.48;;;7.73;78.99
63447;BME280;49577;49.872;6.190;2023-12-20T12:36:22;99676.86;;;8.08;78.17
63447;BME280;49577;49.872;6.190;2023-12-20T12:38:48;99674.26;;;8.35;77.50
63447;BME280;49577;49.872;6.190;2023-12-20T12:41:13;99673.55;;;8.68;76.21
63447;BME280;49577;49.872;6.190;2023-12-20T12:43:40;99672.66;;;8.78;74.90
63447;BME280;49577;49.872;6.190;2023-12-20T12:46:05;99673.88;;;8.69;75.10
63447;BME280;49577;49.872;6.190;2023-12-20T12:48:30;99674.29;;;8.58;74.80
63447;BME280;49577;49.872;6.190;2023-12-20T12:50:56;99668.95;;;8.53;74.63
63447;BME280;49577;49.872;6.190;2023-12-20T12:53:24;99655.01;;;8.57;74.73
63447;BME280;49577;49.872;6.190;2023-12-20T12:55:49;99654.25;;;8.45;74.31
63447;BME280;49577;49.872;6.190;2023-12-20T12:58:14;99656.56;;;8.30;74.54
63447;BME280;49577;49.872;6.190;2023-12-20T13:00:40;99656.70;;;8.14;74.13
63447;BME280;49577;49.872;6.190;2023-12-20T13:03:05;99646.85;;;7.99;74.21
63447;BME280;49577;49.872;6.190;2023-12-20T13:05:30;99637.56;;;7.84;75.06